UVA9830 DNMM-DNPO
Flight info
| Callsign | UVA9830 |
|---|---|
| Flight time | 0h 46m |
| Altitude | 23000 |
| Route | BOTBO1Q BOTBO R984 ARAGU |
| Aircraft | B753/M-SDE2E3FGHIJ3J4J7RWXY/LB1 |
Departure
| Time | 2026-04-28 22:33 |
|---|---|
| Airport | Murtala Muhammed International Airport (DNMM) |
Arrival
| Time | 2026-04-28 23:19 |
|---|---|
| Airport | Port Harcourt International Airport (DNPO) |
| Time | Latitude | Longitude | Altitude | Speed | Heading |
|---|---|---|---|---|---|
| 2026-04-28 22:26 | 6.58082 | 3.32626 | 144 ft | 7 kts | 107° |
| 2026-04-28 22:26 | 6.58089 | 3.32678 | 144 ft | 8 kts | 58° |
| 2026-04-28 22:27 | 6.58144 | 3.32702 | 144 ft | 10 kts | 3° |
| 2026-04-28 22:27 | 6.58230 | 3.32705 | 144 ft | 14 kts | 2° |
| 2026-04-28 22:27 | 6.58335 | 3.32703 | 144 ft | 15 kts | 358° |
| 2026-04-28 22:27 | 6.58438 | 3.32701 | 144 ft | 14 kts | 360° |
| 2026-04-28 22:28 | 6.58535 | 3.32702 | 144 ft | 13 kts | 1° |
| 2026-04-28 22:28 | 6.58625 | 3.32701 | 144 ft | 12 kts | 359° |
| 2026-04-28 22:28 | 6.58710 | 3.32700 | 144 ft | 13 kts | 359° |
| 2026-04-28 22:28 | 6.58806 | 3.32700 | 144 ft | 13 kts | 0° |
| 2026-04-28 22:29 | 6.58896 | 3.32700 | 144 ft | 12 kts | 357° |
| 2026-04-28 22:29 | 6.58978 | 3.32696 | 144 ft | 11 kts | 357° |
| 2026-04-28 22:29 | 6.59054 | 3.32693 | 144 ft | 11 kts | 358° |
| 2026-04-28 22:29 | 6.59147 | 3.32691 | 144 ft | 15 kts | 359° |
| 2026-04-28 22:30 | 6.59260 | 3.32689 | 144 ft | 16 kts | 360° |
| 2026-04-28 22:30 | 6.59372 | 3.32690 | 144 ft | 15 kts | 1° |
| 2026-04-28 22:30 | 6.59478 | 3.32692 | 144 ft | 14 kts | 2° |
| 2026-04-28 22:30 | 6.59576 | 3.32695 | 144 ft | 13 kts | 359° |
| 2026-04-28 22:31 | 6.59667 | 3.32694 | 144 ft | 13 kts | 6° |
| 2026-04-28 22:31 | 6.59728 | 3.32759 | 144 ft | 13 kts | 83° |
| 2026-04-28 22:31 | 6.59701 | 3.32851 | 144 ft | 14 kts | 131° |
| 2026-04-28 22:31 | 6.59590 | 3.32893 | 144 ft | 23 kts | 177° |
| 2026-04-28 22:32 | 6.59285 | 3.32901 | 144 ft | 71 kts | 178° |
| 2026-04-28 22:32 | 6.58558 | 3.32908 | 144 ft | 132 kts | 179° |
| 2026-04-28 22:32 | 6.57457 | 3.32919 | 181 ft | 179 kts | 177° |
| 2026-04-28 22:32 | 6.56105 | 3.32966 | 500 ft | 206 kts | 176° |
| 2026-04-28 22:33 | 6.54696 | 3.33102 | 1358 ft | 208 kts | 162° |
| 2026-04-28 22:33 | 6.53532 | 3.33908 | 2236 ft | 210 kts | 124° |
| 2026-04-28 22:33 | 6.53139 | 3.35284 | 3159 ft | 212 kts | 88° |
| 2026-04-28 22:33 | 6.53329 | 3.36757 | 3954 ft | 219 kts | 85° |
| 2026-04-28 22:34 | 6.53460 | 3.38224 | 4995 ft | 211 kts | 86° |
| 2026-04-28 22:34 | 6.53547 | 3.39693 | 5863 ft | 212 kts | 86° |
| 2026-04-28 22:34 | 6.53573 | 3.41133 | 6669 ft | 215 kts | 96° |
| 2026-04-28 22:34 | 6.53179 | 3.42659 | 7181 ft | 235 kts | 105° |
| 2026-04-28 22:35 | 6.52663 | 3.44262 | 7782 ft | 249 kts | 104° |
| 2026-04-28 22:35 | 6.52121 | 3.45956 | 8324 ft | 266 kts | 105° |
| 2026-04-28 22:35 | 6.51535 | 3.47746 | 9208 ft | 269 kts | 104° |
| 2026-04-28 22:35 | 6.50953 | 3.49511 | 10124 ft | 270 kts | 104° |
| 2026-04-28 22:36 | 6.50357 | 3.51329 | 10579 ft | 288 kts | 105° |
| 2026-04-28 22:36 | 6.49703 | 3.53312 | 10957 ft | 308 kts | 105° |
| 2026-04-28 22:36 | 6.49003 | 3.55426 | 11413 ft | 325 kts | 105° |
| 2026-04-28 22:36 | 6.48289 | 3.57569 | 12287 ft | 326 kts | 105° |
| 2026-04-28 22:37 | 6.47570 | 3.59733 | 12987 ft | 331 kts | 105° |
| 2026-04-28 22:37 | 6.46841 | 3.61929 | 13676 ft | 335 kts | 106° |
| 2026-04-28 22:37 | 6.46097 | 3.64172 | 14280 ft | 342 kts | 106° |
| 2026-04-28 22:37 | 6.45343 | 3.66442 | 14920 ft | 346 kts | 107° |
| 2026-04-28 22:38 | 6.44576 | 3.68750 | 15554 ft | 351 kts | 107° |
| 2026-04-28 22:38 | 6.43801 | 3.71083 | 16118 ft | 356 kts | 107° |
| 2026-04-28 22:38 | 6.43022 | 3.73427 | 16718 ft | 360 kts | 107° |
| 2026-04-28 22:38 | 6.42218 | 3.75848 | 17249 ft | 365 kts | 107° |
| 2026-04-28 22:39 | 6.41417 | 3.78255 | 17821 ft | 369 kts | 108° |
| 2026-04-28 22:39 | 6.40600 | 3.80710 | 18362 ft | 373 kts | 108° |
| 2026-04-28 22:39 | 6.39769 | 3.83211 | 18873 ft | 378 kts | 108° |
| 2026-04-28 22:39 | 6.38933 | 3.85722 | 19395 ft | 381 kts | 107° |
| 2026-04-28 22:40 | 6.38096 | 3.88239 | 19921 ft | 385 kts | 107° |
| 2026-04-28 22:40 | 6.37237 | 3.90821 | 20378 ft | 390 kts | 107° |
| 2026-04-28 22:40 | 6.36385 | 3.93381 | 20881 ft | 393 kts | 107° |
| 2026-04-28 22:40 | 6.35511 | 3.96008 | 21328 ft | 397 kts | 107° |
| 2026-04-28 22:41 | 6.34633 | 3.98645 | 21794 ft | 400 kts | 107° |
| 2026-04-28 22:41 | 6.33753 | 4.01290 | 22224 ft | 404 kts | 107° |
| 2026-04-28 22:41 | 6.32862 | 4.03965 | 22713 ft | 406 kts | 107° |
| 2026-04-28 22:41 | 6.31954 | 4.06692 | 22891 ft | 414 kts | 107° |
| 2026-04-28 22:42 | 6.31034 | 4.09453 | 22895 ft | 426 kts | 107° |
| 2026-04-28 22:42 | 6.30079 | 4.12318 | 22893 ft | 437 kts | 107° |
| 2026-04-28 22:42 | 6.29101 | 4.15255 | 22892 ft | 447 kts | 107° |
| 2026-04-28 22:42 | 6.28112 | 4.18220 | 22890 ft | 455 kts | 107° |
| 2026-04-28 22:43 | 6.27100 | 4.21253 | 22888 ft | 463 kts | 107° |
| 2026-04-28 22:43 | 6.26064 | 4.24361 | 22888 ft | 470 kts | 107° |
| 2026-04-28 22:43 | 6.25031 | 4.27454 | 22885 ft | 472 kts | 107° |
| 2026-04-28 22:43 | 6.23939 | 4.30589 | 22886 ft | 472 kts | 111° |
| 2026-04-28 22:44 | 6.22580 | 4.33552 | 22888 ft | 472 kts | 114° |
| 2026-04-28 22:44 | 6.21175 | 4.36533 | 22887 ft | 472 kts | 114° |
| 2026-04-28 22:44 | 6.19772 | 4.39501 | 22885 ft | 472 kts | 114° |
| 2026-04-28 22:44 | 6.18357 | 4.42486 | 22886 ft | 473 kts | 114° |
| 2026-04-28 22:45 | 6.16936 | 4.45479 | 22884 ft | 472 kts | 114° |
| 2026-04-28 22:45 | 6.15533 | 4.48432 | 22886 ft | 473 kts | 114° |
| 2026-04-28 22:45 | 6.14103 | 4.51438 | 22885 ft | 474 kts | 114° |
| 2026-04-28 22:45 | 6.12687 | 4.54413 | 22884 ft | 473 kts | 114° |
| 2026-04-28 22:46 | 6.11272 | 4.57385 | 22883 ft | 472 kts | 114° |
| 2026-04-28 22:46 | 6.09853 | 4.60364 | 22884 ft | 473 kts | 114° |
| 2026-04-28 22:46 | 6.08442 | 4.63326 | 22883 ft | 474 kts | 114° |
| 2026-04-28 22:46 | 6.07012 | 4.66326 | 22886 ft | 474 kts | 114° |
| 2026-04-28 22:47 | 6.05596 | 4.69299 | 22887 ft | 473 kts | 114° |
| 2026-04-28 22:47 | 6.04183 | 4.72265 | 22887 ft | 473 kts | 114° |
| 2026-04-28 22:47 | 6.02757 | 4.75256 | 22885 ft | 473 kts | 114° |
| 2026-04-28 22:47 | 6.01336 | 4.78236 | 22887 ft | 473 kts | 114° |
| 2026-04-28 22:48 | 5.99912 | 4.81222 | 22886 ft | 474 kts | 114° |
| 2026-04-28 22:48 | 5.98500 | 4.84182 | 22884 ft | 473 kts | 114° |
| 2026-04-28 22:48 | 5.97078 | 4.87164 | 22883 ft | 473 kts | 114° |
| 2026-04-28 22:48 | 5.95656 | 4.90142 | 22884 ft | 471 kts | 114° |
| 2026-04-28 22:49 | 5.94245 | 4.93100 | 22886 ft | 472 kts | 114° |
| 2026-04-28 22:49 | 5.92833 | 4.96058 | 22887 ft | 474 kts | 114° |
| 2026-04-28 22:49 | 5.91403 | 4.99053 | 22886 ft | 474 kts | 114° |
| 2026-04-28 22:49 | 5.89982 | 5.02029 | 22887 ft | 470 kts | 114° |
| 2026-04-28 22:50 | 5.88592 | 5.04929 | 22872 ft | 447 kts | 114° |
| 2026-04-28 22:50 | 5.87283 | 5.07660 | 22871 ft | 430 kts | 114° |
| 2026-04-28 22:50 | 5.86014 | 5.10311 | 22871 ft | 412 kts | 114° |
| 2026-04-28 22:50 | 5.84817 | 5.12810 | 22869 ft | 389 kts | 114° |
| 2026-04-28 22:51 | 5.83641 | 5.15270 | 22895 ft | 397 kts | 114° |
| 2026-04-28 22:51 | 5.82422 | 5.17816 | 22894 ft | 408 kts | 114° |
| 2026-04-28 22:51 | 5.81184 | 5.20398 | 22888 ft | 410 kts | 114° |
| 2026-04-28 22:51 | 5.79946 | 5.22979 | 22886 ft | 407 kts | 114° |
| 2026-04-28 22:52 | 5.78732 | 5.25512 | 22889 ft | 408 kts | 114° |
| 2026-04-28 22:52 | 5.77501 | 5.28078 | 22888 ft | 408 kts | 114° |
| 2026-04-28 22:52 | 5.76268 | 5.30646 | 22886 ft | 408 kts | 113° |
| 2026-04-28 22:52 | 5.75030 | 5.33226 | 22887 ft | 407 kts | 113° |
| 2026-04-28 22:53 | 5.73815 | 5.35758 | 22891 ft | 407 kts | 113° |
| 2026-04-28 22:53 | 5.72579 | 5.38333 | 22893 ft | 408 kts | 114° |
| 2026-04-28 22:53 | 5.71345 | 5.40906 | 22889 ft | 408 kts | 113° |
| 2026-04-28 22:53 | 5.70113 | 5.43471 | 22888 ft | 408 kts | 113° |
| 2026-04-28 22:54 | 5.68898 | 5.46002 | 22861 ft | 408 kts | 114° |
| 2026-04-28 22:54 | 5.67657 | 5.48585 | 22729 ft | 400 kts | 113° |
| 2026-04-28 22:54 | 5.66480 | 5.51034 | 22431 ft | 385 kts | 113° |
| 2026-04-28 22:54 | 5.65327 | 5.53435 | 22072 ft | 378 kts | 113° |
| 2026-04-28 22:55 | 5.64198 | 5.55789 | 21733 ft | 379 kts | 113° |
| 2026-04-28 22:55 | 5.63053 | 5.58174 | 21393 ft | 381 kts | 114° |
| 2026-04-28 22:55 | 5.61900 | 5.60573 | 21045 ft | 378 kts | 113° |
| 2026-04-28 22:55 | 5.60769 | 5.62926 | 20693 ft | 373 kts | 113° |
| 2026-04-28 22:56 | 5.59643 | 5.65270 | 20351 ft | 371 kts | 114° |
| 2026-04-28 22:56 | 5.58524 | 5.67599 | 20018 ft | 371 kts | 114° |
| 2026-04-28 22:56 | 5.57405 | 5.69926 | 19678 ft | 368 kts | 114° |
| 2026-04-28 22:56 | 5.56300 | 5.72224 | 19336 ft | 365 kts | 114° |
| 2026-04-28 22:57 | 5.55198 | 5.74516 | 19005 ft | 364 kts | 114° |
| 2026-04-28 22:57 | 5.54113 | 5.76773 | 18674 ft | 362 kts | 114° |
| 2026-04-28 22:57 | 5.53022 | 5.79041 | 18334 ft | 359 kts | 114° |
| 2026-04-28 22:57 | 5.51945 | 5.81281 | 18006 ft | 357 kts | 114° |
| 2026-04-28 22:58 | 5.50866 | 5.83523 | 17676 ft | 356 kts | 114° |
| 2026-04-28 22:58 | 5.49782 | 5.85777 | 17343 ft | 354 kts | 114° |
| 2026-04-28 22:58 | 5.48718 | 5.87988 | 17003 ft | 352 kts | 114° |
| 2026-04-28 22:58 | 5.47663 | 5.90177 | 16671 ft | 349 kts | 114° |
| 2026-04-28 22:59 | 5.46617 | 5.92353 | 16342 ft | 346 kts | 114° |
| 2026-04-28 22:59 | 5.45566 | 5.94535 | 16017 ft | 344 kts | 114° |
| 2026-04-28 22:59 | 5.44538 | 5.96670 | 15691 ft | 342 kts | 113° |
| 2026-04-28 22:59 | 5.43497 | 5.98833 | 15355 ft | 339 kts | 113° |
| 2026-04-28 23:00 | 5.42487 | 6.00931 | 15039 ft | 338 kts | 113° |
| 2026-04-28 23:00 | 5.41460 | 6.03063 | 14713 ft | 335 kts | 113° |
| 2026-04-28 23:00 | 5.40451 | 6.05159 | 14396 ft | 333 kts | 113° |
| 2026-04-28 23:00 | 5.39446 | 6.07246 | 14076 ft | 331 kts | 113° |
| 2026-04-28 23:01 | 5.38446 | 6.09321 | 13757 ft | 327 kts | 113° |
| 2026-04-28 23:01 | 5.37466 | 6.11356 | 13446 ft | 325 kts | 113° |
| 2026-04-28 23:01 | 5.36487 | 6.13389 | 13143 ft | 325 kts | 112° |
| 2026-04-28 23:01 | 5.35511 | 6.15415 | 12832 ft | 323 kts | 112° |
| 2026-04-28 23:02 | 5.34573 | 6.17450 | 12527 ft | 318 kts | 106° |
| 2026-04-28 23:02 | 5.34030 | 6.19596 | 12257 ft | 315 kts | 99° |
| 2026-04-28 23:02 | 5.33573 | 6.21739 | 11985 ft | 314 kts | 99° |
| 2026-04-28 23:02 | 5.33118 | 6.23850 | 11709 ft | 312 kts | 99° |
| 2026-04-28 23:03 | 5.32665 | 6.25982 | 11433 ft | 310 kts | 99° |
| 2026-04-28 23:03 | 5.32217 | 6.28095 | 11157 ft | 307 kts | 99° |
| 2026-04-28 23:03 | 5.31775 | 6.30184 | 10890 ft | 307 kts | 99° |
| 2026-04-28 23:03 | 5.31340 | 6.32246 | 10622 ft | 305 kts | 99° |
| 2026-04-28 23:04 | 5.30900 | 6.34333 | 10346 ft | 303 kts | 99° |
| 2026-04-28 23:04 | 5.30055 | 6.38332 | 10180 ft | 281 kts | 98° |
| 2026-04-28 23:04 | 5.29659 | 6.40207 | 10127 ft | 268 kts | 98° |
| 2026-04-28 23:05 | 5.29279 | 6.42016 | 9869 ft | 264 kts | 98° |
| 2026-04-28 23:05 | 5.28903 | 6.43802 | 9622 ft | 259 kts | 98° |
| 2026-04-28 23:05 | 5.28537 | 6.45537 | 9377 ft | 251 kts | 98° |
| 2026-04-28 23:05 | 5.28174 | 6.47264 | 9150 ft | 253 kts | 98° |
| 2026-04-28 23:06 | 5.27810 | 6.49000 | 8931 ft | 260 kts | 98° |
| 2026-04-28 23:06 | 5.27433 | 6.50790 | 8696 ft | 260 kts | 99° |
| 2026-04-28 23:06 | 5.27060 | 6.52556 | 8456 ft | 258 kts | 99° |
| 2026-04-28 23:06 | 5.26687 | 6.54323 | 8222 ft | 258 kts | 99° |
| 2026-04-28 23:07 | 5.26316 | 6.56083 | 7995 ft | 260 kts | 99° |
| 2026-04-28 23:07 | 5.25941 | 6.57858 | 7764 ft | 260 kts | 99° |
| 2026-04-28 23:07 | 5.25569 | 6.59619 | 7534 ft | 258 kts | 99° |
| 2026-04-28 23:07 | 5.25198 | 6.61376 | 7305 ft | 257 kts | 99° |
| 2026-04-28 23:08 | 5.24829 | 6.63129 | 7080 ft | 257 kts | 99° |
| 2026-04-28 23:08 | 5.24459 | 6.64880 | 6855 ft | 258 kts | 99° |
| 2026-04-28 23:08 | 5.24085 | 6.66649 | 6635 ft | 258 kts | 100° |
| 2026-04-28 23:08 | 5.23721 | 6.68372 | 6581 ft | 247 kts | 100° |
| 2026-04-28 23:09 | 5.23374 | 6.70010 | 6561 ft | 234 kts | 99° |
| 2026-04-28 23:09 | 5.23046 | 6.71558 | 6386 ft | 221 kts | 99° |
| 2026-04-28 23:09 | 5.22731 | 6.73053 | 6059 ft | 217 kts | 99° |
| 2026-04-28 23:09 | 5.22419 | 6.74533 | 5608 ft | 219 kts | 100° |
| 2026-04-28 23:10 | 5.22107 | 6.76014 | 5238 ft | 216 kts | 101° |
| 2026-04-28 23:10 | 5.21798 | 6.77478 | 4901 ft | 216 kts | 101° |
| 2026-04-28 23:10 | 5.21487 | 6.78951 | 4652 ft | 216 kts | 101° |
| 2026-04-28 23:10 | 5.21176 | 6.80419 | 4478 ft | 210 kts | 101° |
| 2026-04-28 23:11 | 5.20870 | 6.81865 | 4415 ft | 221 kts | 101° |
| 2026-04-28 23:11 | 5.20542 | 6.83419 | 4320 ft | 234 kts | 102° |
| 2026-04-28 23:11 | 5.20205 | 6.85013 | 4165 ft | 232 kts | 102° |
| 2026-04-28 23:11 | 5.19868 | 6.86604 | 4003 ft | 231 kts | 102° |
| 2026-04-28 23:12 | 5.19537 | 6.88171 | 3844 ft | 231 kts | 102° |
| 2026-04-28 23:12 | 5.19202 | 6.89752 | 3676 ft | 232 kts | 102° |
| 2026-04-28 23:12 | 5.18866 | 6.91340 | 3497 ft | 231 kts | 102° |
| 2026-04-28 23:12 | 5.18533 | 6.92914 | 3315 ft | 232 kts | 103° |
| 2026-04-28 23:13 | 5.18201 | 6.94484 | 3129 ft | 231 kts | 103° |
| 2026-04-28 23:13 | 5.17869 | 6.96052 | 2942 ft | 231 kts | 103° |
| 2026-04-28 23:13 | 5.17532 | 6.97643 | 2745 ft | 231 kts | 103° |
| 2026-04-28 23:13 | 5.17199 | 6.99211 | 2566 ft | 231 kts | 103° |
| 2026-04-28 23:14 | 5.16873 | 7.00758 | 2372 ft | 224 kts | 103° |
| 2026-04-28 23:14 | 5.16552 | 7.02267 | 2243 ft | 215 kts | 103° |
| 2026-04-28 23:14 | 5.16125 | 7.03688 | 2233 ft | 218 kts | 124° |
| 2026-04-28 23:14 | 5.14960 | 7.04601 | 2227 ft | 214 kts | 165° |
| 2026-04-28 23:15 | 5.13554 | 7.04469 | 2078 ft | 196 kts | 213° |
| 2026-04-28 23:15 | 5.12793 | 7.03484 | 2081 ft | 174 kts | 250° |
| 2026-04-28 23:15 | 5.12460 | 7.02353 | 2062 ft | 165 kts | 253° |
| 2026-04-28 23:15 | 5.12141 | 7.01193 | 1892 ft | 182 kts | 253° |
| 2026-04-28 23:16 | 5.11573 | 7.00113 | 1717 ft | 167 kts | 216° |
| 2026-04-28 23:16 | 5.10524 | 6.99601 | 1620 ft | 173 kts | 202° |
| 2026-04-28 23:16 | 5.09419 | 6.99096 | 1438 ft | 170 kts | 207° |
| 2026-04-28 23:16 | 5.08401 | 6.98577 | 1321 ft | 156 kts | 207° |
| 2026-04-28 23:17 | 5.07476 | 6.98098 | 1124 ft | 145 kts | 208° |
| 2026-04-28 23:17 | 5.06585 | 6.97628 | 951 ft | 147 kts | 208° |
| 2026-04-28 23:17 | 5.05659 | 6.97138 | 758 ft | 150 kts | 208° |
| 2026-04-28 23:17 | 5.04735 | 6.96648 | 556 ft | 151 kts | 208° |
| 2026-04-28 23:18 | 5.03822 | 6.96161 | 367 ft | 150 kts | 208° |
| 2026-04-28 23:18 | 5.02880 | 6.95669 | 210 ft | 147 kts | 208° |
| 2026-04-28 23:18 | 5.02000 | 6.95202 | 120 ft | 134 kts | 214° |
| 2026-04-28 23:18 | 5.01257 | 6.94800 | 120 ft | 105 kts | 209° |
| 2026-04-28 23:19 | 5.00725 | 6.94514 | 120 ft | 67 kts | 208° |
| 2026-04-28 23:19 | 5.00426 | 6.94358 | 120 ft | 15 kts | 207° |
| 2026-04-28 23:19 | 5.00339 | 6.94364 | 120 ft | 12 kts | 135° |
| 2026-04-28 23:19 | 5.00302 | 6.94441 | 120 ft | 11 kts | 111° |
| 2026-04-28 23:20 | 5.00305 | 6.94515 | 120 ft | 10 kts | 56° |
| 2026-04-28 23:20 | 5.00361 | 6.94552 | 120 ft | 9 kts | 28° |
| 2026-04-28 23:20 | 5.00417 | 6.94583 | 120 ft | 8 kts | 28° |
| 2026-04-28 23:20 | 5.00468 | 6.94611 | 120 ft | 8 kts | 28° |
| 2026-04-28 23:21 | 5.00517 | 6.94637 | 120 ft | 7 kts | 28° |
| 2026-04-28 23:21 | 5.00563 | 6.94662 | 120 ft | 7 kts | 28° |
| 2026-04-28 23:21 | 5.00607 | 6.94686 | 120 ft | 7 kts | 28° |
| 2026-04-28 23:21 | 5.00651 | 6.94710 | 120 ft | 7 kts | 28° |
| 2026-04-28 23:22 | 5.00695 | 6.94733 | 120 ft | 7 kts | 28° |
| 2026-04-28 23:22 | 5.00740 | 6.94757 | 120 ft | 9 kts | 26° |
| 2026-04-28 23:22 | 5.00804 | 6.94789 | 120 ft | 11 kts | 28° |
| 2026-04-28 23:22 | 5.00872 | 6.94825 | 120 ft | 10 kts | 28° |
| 2026-04-28 23:23 | 5.00931 | 6.94864 | 119 ft | 9 kts | 60° |
| 2026-04-28 23:23 | 5.00929 | 6.94918 | 120 ft | 7 kts | 121° |
| 2026-04-28 23:23 | 5.00891 | 6.94940 | 119 ft | 6 kts | 179° |
| 2026-04-28 23:23 | 5.00860 | 6.94927 | 120 ft | 5 kts | 216° |
| 2026-04-28 23:24 | 5.00836 | 6.94912 | 119 ft | 0 kts | 206° |